KCJR

Details ICAO KCJR
Name CULPEPER RGNL
Region United States
Timezone America/New_York (UTC-5.0)
Plans Departing 3
Arriving 4
Stats Elevation 316 ft / 96 m (AMSL)
Location 38.525475° -77.859628°
Runways 1
Magnetic Variation 10.262° W
Sunrise 2017-12-15 12:23:19 UTC / 2017-12-15 07:23:19 Local
Sunset 2017-12-15 21:52:51 UTC / 2017-12-15 16:52:51 Local
Advertisement - Login to hide

Runways

ID Width Length Bearing (true) Bearing (mag) Surface Threshold Offset Overrun Length
04 100 ft / 30 m 5,005 ft / 1,526 m 28.15° 38.41° Asphalt 0 ft / 0 m 0 ft / 0 m
22 100 ft / 30 m 5,005 ft / 1,526 m 208.15° 218.41° Asphalt 0 ft / 0 m 0 ft / 0 m

Approach Navaids

Runway Type Ident Frequency Range Bearing (true) Bearing (mag) Slope Elevation
04 Localiser IDZH 109.95 MHz 18 nm / 33 km 28.15° 38.41° - 315 ft / 96 m (AMSL)

Map

Weather


0- 5 10 15 20 25 30 35+ Temperature / ° C

Clouds and Precipitation
Forecast for 2017-12-15 18:00 UTC. Updated 41 minutes ago

Ground ~20,000 ft ~40,000 ft Winds

METAR

KCJR 151555Z AUTO 00000KT 10SM OVC031 00/M09 A3005 RMK AO2 T10031089

TAF

Not found

Frequencies

Recorded 120.02 MHz AWOS 3
Approach 124.65 MHz POTOMAC APP/DEP
Unicom 123.07 MHz CTAF/UNICOM
Warning: Do not use this data for real-world aviation or navigation. No guarantee of current accuracy is given.